createdAt,value
2019-02-28T00:01:25.670Z,5.90
2019-02-28T00:03:58.048Z,6.03
2019-02-28T00:06:25.457Z,5.83
2019-02-28T00:08:54.756Z,6.13
2019-02-28T00:11:23.570Z,5.70
2019-02-28T00:13:55.581Z,5.90
2019-02-28T00:16:22.835Z,5.30
2019-02-28T00:18:51.602Z,5.60
2019-02-28T00:21:20.344Z,6.20
2019-02-28T00:23:49.383Z,6.43
2019-02-28T00:26:18.106Z,6.57
2019-02-28T00:28:46.878Z,6.60
2019-02-28T00:31:15.607Z,6.60
2019-02-28T00:33:44.422Z,7.43
2019-02-28T00:36:13.194Z,7.03
2019-02-28T00:38:42.190Z,7.50
2019-02-28T00:41:10.941Z,9.20
2019-02-28T00:43:39.942Z,8.37
2019-02-28T00:46:09.991Z,8.50
2019-02-28T00:48:39.661Z,9.70
2019-02-28T00:51:08.931Z,9.80
2019-02-28T00:53:38.199Z,9.17
2019-02-28T00:56:07.072Z,10.13
2019-02-28T00:58:35.834Z,9.50
2019-02-28T01:01:04.914Z,10.40
2019-02-28T01:03:33.831Z,11.17
2019-02-28T01:06:02.943Z,10.30
2019-02-28T01:08:32.035Z,10.27
2019-02-28T01:11:00.773Z,10.67
2019-02-28T01:13:29.553Z,11.83
2019-02-28T01:15:58.560Z,11.50
2019-02-28T01:18:27.577Z,11.03
2019-02-28T01:20:56.387Z,13.17
2019-02-28T01:23:25.407Z,11.57
2019-02-28T01:25:54.175Z,11.83
2019-02-28T01:28:23.441Z,13.67
2019-02-28T01:30:53.411Z,13.00
2019-02-28T01:33:25.026Z,12.97
2019-02-28T01:35:52.637Z,12.00
2019-02-28T01:38:23.875Z,13.30
2019-02-28T01:40:52.171Z,14.80
2019-02-28T01:43:20.987Z,14.63
2019-02-28T01:45:50.300Z,13.70
2019-02-28T01:48:19.058Z,15.20
2019-02-28T01:50:48.061Z,15.77
2019-02-28T01:53:19.582Z,16.27
2019-02-28T01:55:47.662Z,15.60
2019-02-28T01:58:17.394Z,16.73
2019-02-28T02:00:46.278Z,16.40
2019-02-28T02:03:15.161Z,17.23
2019-02-28T02:05:43.941Z,16.50
2019-02-28T02:08:12.854Z,16.30
2019-02-28T02:10:41.671Z,17.37
2019-02-28T02:13:10.741Z,18.30
2019-02-28T02:15:39.714Z,16.13
2019-02-28T02:18:09.434Z,17.47
2019-02-28T02:20:39.203Z,19.40
2019-02-28T02:23:08.189Z,19.63
2019-02-28T02:25:38.187Z,20.20
2019-02-28T02:28:07.313Z,18.43
2019-02-28T02:30:36.071Z,19.77
2019-02-28T02:33:04.874Z,19.27
2019-02-28T02:35:33.936Z,21.13
2019-02-28T02:38:04.612Z,19.40
2019-02-28T02:40:34.103Z,22.50
2019-02-28T02:43:02.915Z,20.80
2019-02-28T02:45:31.651Z,21.23
2019-02-28T02:48:05.234Z,20.60
2019-02-28T02:50:35.859Z,21.73
2019-02-28T02:53:05.580Z,22.60
2019-02-28T02:55:33.812Z,21.80
2019-02-28T02:58:02.641Z,22.97
2019-02-28T03:00:31.466Z,22.93
2019-02-28T03:03:00.303Z,21.97
2019-02-28T03:05:34.914Z,22.53
2019-02-28T03:08:01.120Z,23.40
2019-02-28T03:10:31.452Z,23.03
2019-02-28T03:13:04.911Z,23.10
2019-02-28T03:15:31.195Z,22.97
2019-02-28T03:17:59.988Z,22.53
2019-02-28T03:20:29.045Z,21.70
2019-02-28T03:23:01.992Z,21.93
2019-02-28T03:25:31.227Z,23.07
2019-02-28T03:27:59.989Z,22.40
2019-02-28T03:30:32.796Z,20.70
2019-02-28T03:33:00.031Z,20.20
2019-02-28T03:35:40.032Z,23.83
2019-02-28T03:37:59.829Z,22.90
2019-02-28T03:40:28.572Z,22.70
2019-02-28T03:43:05.248Z,22.87
2019-02-28T03:45:33.844Z,23.13
2019-02-28T03:47:59.821Z,24.70
2019-02-28T03:50:29.051Z,23.23
2019-02-28T03:52:58.048Z,24.03
2019-02-28T03:55:27.180Z,23.10
2019-02-28T03:58:04.258Z,23.70
2019-02-28T04:00:32.856Z,22.47
2019-02-28T04:02:59.122Z,25.90
2019-02-28T04:05:28.650Z,22.97
2019-02-28T04:07:57.555Z,23.30
2019-02-28T04:10:26.359Z,23.27
2019-02-28T04:12:55.400Z,24.03
2019-02-28T04:15:24.446Z,24.63
2019-02-28T04:17:53.354Z,23.53
2019-02-28T04:20:22.095Z,25.33
2019-02-28T04:22:50.984Z,23.97
2019-02-28T04:25:24.178Z,24.00
2019-02-28T04:27:50.748Z,26.00
2019-02-28T04:30:19.964Z,23.90
2019-02-28T04:32:49.119Z,23.10
2019-02-28T04:35:24.392Z,23.60
2019-02-28T04:37:48.936Z,26.33
2019-02-28T04:40:17.708Z,25.40
2019-02-28T04:42:46.471Z,24.07
2019-02-28T04:45:15.715Z,24.03
2019-02-28T04:47:44.631Z,24.30
2019-02-28T04:50:13.565Z,24.90
2019-02-28T04:52:48.001Z,23.83
2019-02-28T04:55:14.382Z,24.70
2019-02-28T04:57:43.663Z,23.57
2019-02-28T05:00:12.581Z,24.10
2019-02-28T05:02:41.594Z,24.20
2019-02-28T05:05:12.656Z,26.50
2019-02-28T05:07:41.276Z,25.50
2019-02-28T05:10:10.314Z,25.93
2019-02-28T05:12:39.907Z,26.13
2019-02-28T05:15:10.162Z,27.60
2019-02-28T05:17:38.946Z,28.37
2019-02-28T05:20:10.977Z,30.27
2019-02-28T05:22:38.390Z,32.37
2019-02-28T05:25:07.834Z,31.50
2019-02-28T05:27:36.713Z,28.47
2019-02-28T05:30:07.208Z,30.10
2019-02-28T05:32:37.647Z,29.30
2019-02-28T05:35:06.931Z,27.90
2019-02-28T05:37:36.185Z,33.07
2019-02-28T05:40:06.795Z,33.33
2019-02-28T05:42:36.069Z,33.30
2019-02-28T05:45:05.191Z,30.00
2019-02-28T05:47:42.477Z,29.97
2019-02-28T05:50:05.210Z,31.30
2019-02-28T05:52:34.581Z,33.27
2019-02-28T05:55:03.727Z,32.83
2019-02-28T05:57:32.789Z,32.20
2019-02-28T06:00:02.970Z,30.93
2019-02-28T06:02:32.074Z,35.67
2019-02-28T06:05:00.838Z,33.37
2019-02-28T06:07:29.866Z,32.60
2019-02-28T06:09:58.714Z,34.27
2019-02-28T06:12:27.757Z,36.17
2019-02-28T06:15:01.988Z,34.33
2019-02-28T06:17:27.465Z,34.10
2019-02-28T06:19:56.214Z,35.00
2019-02-28T06:22:25.208Z,34.97
2019-02-28T06:24:55.794Z,33.77
2019-02-28T06:27:24.581Z,33.77
2019-02-28T06:29:53.385Z,32.17
2019-02-28T06:32:23.750Z,33.87
2019-02-28T06:34:53.320Z,30.87
2019-02-28T06:37:25.643Z,31.60
2019-02-28T06:39:54.738Z,31.30
2019-02-28T06:42:24.112Z,34.53
2019-02-28T06:44:53.075Z,32.43
2019-02-28T06:47:22.533Z,30.37
2019-02-28T06:49:55.698Z,29.60
2019-02-28T06:52:25.212Z,31.50
2019-02-28T06:54:55.186Z,32.40
2019-02-28T06:57:26.894Z,30.33
2019-02-28T06:59:54.446Z,33.70
2019-02-28T07:02:23.783Z,29.70
2019-02-28T07:04:53.051Z,31.00
2019-02-28T07:07:22.086Z,30.33
2019-02-28T07:09:50.858Z,29.47
2019-02-28T07:12:19.903Z,32.10
2019-02-28T07:14:49.583Z,30.53
2019-02-28T07:17:18.682Z,29.90
2019-02-28T07:19:47.824Z,31.80
2019-02-28T07:22:19.731Z,31.67
2019-02-28T07:24:47.633Z,30.23
2019-02-28T07:27:16.926Z,30.60
2019-02-28T07:29:45.957Z,29.70
2019-02-28T07:32:14.853Z,30.50
2019-02-28T07:34:43.704Z,31.17
2019-02-28T07:37:12.522Z,31.30
2019-02-28T07:39:41.762Z,30.57
2019-02-28T07:42:10.521Z,31.10
2019-02-28T07:44:39.390Z,32.23
2019-02-28T07:47:08.166Z,31.43
2019-02-28T07:49:37.164Z,30.17
2019-02-28T07:52:06.223Z,30.00
2019-02-28T07:54:34.970Z,30.00
2019-02-28T07:57:04.071Z,31.70
2019-02-28T07:59:32.894Z,30.80
2019-02-28T08:02:03.201Z,30.73
2019-02-28T08:04:32.647Z,33.23
2019-02-28T08:07:01.379Z,31.27
2019-02-28T08:09:33.486Z,29.30
2019-02-28T08:12:02.391Z,31.03
2019-02-28T08:14:31.236Z,31.10
2019-02-28T08:16:59.953Z,29.90
2019-02-28T08:19:29.239Z,31.67
2019-02-28T08:21:58.027Z,31.10
2019-02-28T08:24:27.107Z,30.63
2019-02-28T08:26:56.097Z,29.20
2019-02-28T08:29:25.337Z,28.03
2019-02-28T08:31:54.383Z,30.40
2019-02-28T08:34:23.885Z,30.27
2019-02-28T08:36:53.722Z,28.10
2019-02-28T08:39:22.767Z,29.87
2019-02-28T08:41:51.522Z,29.43
2019-02-28T08:44:23.825Z,31.07
2019-02-28T08:46:50.814Z,29.30
2019-02-28T08:49:19.831Z,30.70
2019-02-28T08:51:48.665Z,29.40
2019-02-28T08:54:17.439Z,28.83
2019-02-28T08:56:49.473Z,30.20
2019-02-28T08:59:19.626Z,28.53
2019-02-28T09:01:47.733Z,30.87
2019-02-28T09:04:17.034Z,29.70
2019-02-28T09:06:46.019Z,30.90
2019-02-28T09:09:15.172Z,31.50
2019-02-28T09:11:44.243Z,30.23
2019-02-28T09:14:14.771Z,29.00
2019-02-28T09:16:43.853Z,32.30
2019-02-28T09:19:12.962Z,33.80
2019-02-28T09:21:42.893Z,30.50
2019-02-28T09:24:12.710Z,35.63
2019-02-28T09:26:43.089Z,34.53
2019-02-28T09:29:11.897Z,37.50
2019-02-28T09:31:41.270Z,38.90
2019-02-28T09:34:10.018Z,40.23
2019-02-28T09:36:38.797Z,42.60
2019-02-28T09:39:08.003Z,48.20
2019-02-28T09:41:40.147Z,43.67
2019-02-28T09:44:07.599Z,42.90
2019-02-28T09:46:36.428Z,43.57
2019-02-28T09:49:05.831Z,44.00
2019-02-28T09:51:34.946Z,42.97
2019-02-28T09:54:03.826Z,41.93
2019-02-28T09:56:32.625Z,45.87
2019-02-28T09:59:03.118Z,44.00
2019-02-28T10:01:32.286Z,46.83
2019-02-28T10:04:01.308Z,46.63
2019-02-28T10:06:33.104Z,44.57
2019-02-28T10:09:01.808Z,42.90
2019-02-28T10:11:32.614Z,42.90
2019-02-28T10:14:01.814Z,43.20
2019-02-28T10:16:32.583Z,42.47
2019-02-28T10:19:01.936Z,42.87
2019-02-28T10:21:33.300Z,44.33
2019-02-28T10:24:03.106Z,44.53
2019-02-28T10:26:32.112Z,43.97
2019-02-28T10:29:01.410Z,41.70
2019-02-28T10:31:36.331Z,42.87
2019-02-28T10:34:03.023Z,43.97
2019-02-28T10:36:31.858Z,42.77
2019-02-28T10:39:20.095Z,44.70
2019-02-28T10:41:49.116Z,42.53
2019-02-28T10:44:18.371Z,44.97
2019-02-28T10:46:50.341Z,43.60
2019-02-28T10:49:21.100Z,44.10
2019-02-28T10:51:50.440Z,46.47
2019-02-28T10:54:19.352Z,44.00
2019-02-28T10:56:48.603Z,44.40
2019-02-28T10:59:17.680Z,47.50
2019-02-28T11:01:46.908Z,43.80
2019-02-28T11:04:16.079Z,43.30
2019-02-28T11:06:46.798Z,45.77
2019-02-28T11:09:21.737Z,44.60
2019-02-28T11:11:50.953Z,43.83
2019-02-28T11:14:19.954Z,43.93
2019-02-28T11:16:48.898Z,46.20
2019-02-28T11:19:19.453Z,44.63
2019-02-28T11:21:49.064Z,47.07
2019-02-28T11:24:20.593Z,46.00
2019-02-28T11:26:48.833Z,45.13
2019-02-28T11:29:17.610Z,45.50
2019-02-28T11:31:46.878Z,44.73
2019-02-28T11:34:16.253Z,44.00
2019-02-28T11:36:45.079Z,45.17
2019-02-28T11:39:20.771Z,47.57
2019-02-28T11:41:52.702Z,43.80
2019-02-28T11:44:20.734Z,44.50
2019-02-28T11:46:49.879Z,46.27
2019-02-28T11:49:19.220Z,43.30
2019-02-28T11:51:49.374Z,44.40
2019-02-28T11:54:18.770Z,43.50
2019-02-28T11:56:47.586Z,46.03
2019-02-28T11:59:16.639Z,46.83
2019-02-28T12:01:48.316Z,45.80
2019-02-28T12:04:37.438Z,47.10
2019-02-28T12:07:06.659Z,46.77
2019-02-28T12:09:36.235Z,46.90
2019-02-28T12:12:07.256Z,46.80
2019-02-28T12:14:36.286Z,49.03
2019-02-28T12:17:05.201Z,46.10
2019-02-28T12:19:33.946Z,46.40
2019-02-28T12:22:03.286Z,46.97
2019-02-28T12:24:32.353Z,46.27
2019-02-28T12:27:04.107Z,47.10
2019-02-28T12:29:33.254Z,49.07
2019-02-28T12:32:22.183Z,47.97
2019-02-28T12:34:51.613Z,46.13
2019-02-28T12:37:24.530Z,48.03
2019-02-28T12:39:54.560Z,49.20
2019-02-28T12:42:25.619Z,50.20
2019-02-28T12:44:55.215Z,47.10
2019-02-28T12:47:25.850Z,47.53
2019-02-28T12:49:57.250Z,49.27
2019-02-28T12:52:26.862Z,48.70
2019-02-28T12:54:56.883Z,47.50
2019-02-28T12:57:26.442Z,48.20
2019-02-28T12:59:55.819Z,47.53
2019-02-28T13:02:24.777Z,47.13
2019-02-28T13:04:53.638Z,46.60
2019-02-28T13:07:22.778Z,46.70
2019-02-28T13:09:52.671Z,47.90
2019-02-28T13:12:21.523Z,47.57
2019-02-28T13:14:50.315Z,44.53
2019-02-28T13:17:19.320Z,44.13
2019-02-28T13:19:48.066Z,45.57
2019-02-28T13:22:18.884Z,41.50
2019-02-28T13:24:47.644Z,44.17
2019-02-28T13:27:16.831Z,43.60
2019-02-28T13:29:45.960Z,42.50
2019-02-28T13:32:15.088Z,43.90
2019-02-28T13:34:44.318Z,42.47
2019-02-28T13:37:13.610Z,42.73
2019-02-28T13:39:42.446Z,41.63
2019-02-28T13:42:11.213Z,43.13
2019-02-28T13:44:41.230Z,42.63
2019-02-28T13:47:10.895Z,39.67
2019-02-28T13:49:40.070Z,39.33
2019-02-28T13:52:09.118Z,41.17
2019-02-28T13:54:38.217Z,41.43
2019-02-28T13:57:10.129Z,38.00
2019-02-28T13:59:39.540Z,37.57
2019-02-28T14:02:08.397Z,35.97
2019-02-28T14:04:37.461Z,36.73
2019-02-28T14:07:07.971Z,35.73
2019-02-28T14:09:40.873Z,37.87
2019-02-28T14:12:10.192Z,36.53
2019-02-28T14:14:42.299Z,34.73
2019-02-28T14:17:10.447Z,37.43
2019-02-28T14:19:39.443Z,35.17
2019-02-28T14:22:11.616Z,35.90
2019-02-28T14:24:41.384Z,35.33
2019-02-28T14:27:10.519Z,33.40
2019-02-28T14:29:42.983Z,35.67
2019-02-28T14:32:12.003Z,35.23
2019-02-28T14:34:41.505Z,34.40
2019-02-28T14:37:11.735Z,36.47
2019-02-28T14:39:42.640Z,32.80
2019-02-28T14:42:12.584Z,36.27
2019-02-28T14:44:41.668Z,37.50
2019-02-28T14:47:11.279Z,35.50
2019-02-28T14:49:43.834Z,34.30
2019-02-28T14:52:11.530Z,35.30
2019-02-28T14:54:40.845Z,33.90
2019-02-28T14:57:09.877Z,33.33
2019-02-28T14:59:38.947Z,32.00
2019-02-28T15:02:08.952Z,31.60
2019-02-28T15:04:39.811Z,28.07
2019-02-28T15:07:12.400Z,30.27
2019-02-28T15:09:41.714Z,28.70
2019-02-28T15:12:11.179Z,29.13
2019-02-28T15:14:43.218Z,29.60
2019-02-28T15:17:12.397Z,30.23
2019-02-28T15:19:41.524Z,29.43
2019-02-28T15:22:10.945Z,29.90
2019-02-28T15:24:43.739Z,34.70
2019-02-28T15:27:12.819Z,29.47
2019-02-28T15:29:41.936Z,31.23
2019-02-28T15:32:14.252Z,29.57
2019-02-28T15:34:42.671Z,30.77
2019-02-28T15:37:12.579Z,29.83
2019-02-28T15:39:41.909Z,30.27
2019-02-28T15:42:11.258Z,31.07
2019-02-28T15:44:40.476Z,32.83
2019-02-28T15:47:10.100Z,30.27
2019-02-28T15:49:41.805Z,32.53
2019-02-28T15:52:11.195Z,32.10
2019-02-28T15:54:40.288Z,32.80
2019-02-28T15:57:09.746Z,30.43
2019-02-28T15:59:38.725Z,32.90
2019-02-28T16:02:09.422Z,34.63
2019-02-28T16:04:38.352Z,33.80
2019-02-28T16:07:07.728Z,33.60
2019-02-28T16:09:36.723Z,36.47
2019-02-28T16:12:06.399Z,38.40
2019-02-28T16:14:35.839Z,40.30
2019-02-28T16:17:05.201Z,40.17
2019-02-28T16:19:34.259Z,40.20
2019-02-28T16:22:03.569Z,41.20
2019-02-28T16:24:32.695Z,41.70
2019-02-28T16:27:01.570Z,41.47
2019-02-28T16:29:30.755Z,42.50
2019-02-28T16:31:59.672Z,43.60
2019-02-28T16:34:28.425Z,43.83
2019-02-28T16:36:57.405Z,43.90
2019-02-28T16:39:27.941Z,44.87
2019-02-28T16:41:56.722Z,46.83
2019-02-28T16:44:27.680Z,45.80
2019-02-28T16:46:56.627Z,47.70
2019-02-28T16:49:25.653Z,48.03
2019-02-28T16:51:54.455Z,45.33
2019-02-28T16:54:25.778Z,45.77
2019-02-28T16:56:54.508Z,44.10
2019-02-28T16:59:23.262Z,42.77
2019-02-28T17:01:54.848Z,47.07
2019-02-28T17:04:22.766Z,48.57
2019-02-28T17:06:51.789Z,47.43
2019-02-28T17:09:30.304Z,48.20
2019-02-28T17:12:05.773Z,48.57
2019-02-28T17:14:35.292Z,48.00
2019-02-28T17:17:11.875Z,49.00
2019-02-28T17:19:39.857Z,43.77
2019-02-28T17:22:08.627Z,44.63
2019-02-28T17:24:37.643Z,43.70
2019-02-28T17:27:18.020Z,45.20
2019-02-28T17:29:51.135Z,45.57
2019-02-28T17:32:21.089Z,42.50
2019-02-28T17:34:50.118Z,43.37
2019-02-28T17:37:20.464Z,43.70
2019-02-28T17:39:51.171Z,43.73
2019-02-28T17:42:21.408Z,43.73
2019-02-28T17:45:02.645Z,43.50
2019-02-28T17:48:22.096Z,42.40
2019-02-28T17:51:19.265Z,39.60
2019-02-28T17:54:36.321Z,40.67
2019-02-28T17:57:36.343Z,41.20
2019-02-28T18:00:41.086Z,40.07
2019-02-28T18:03:27.766Z,40.80
2019-02-28T18:06:19.273Z,40.50
2019-02-28T18:09:14.446Z,40.13
2019-02-28T18:12:25.193Z,40.33
2019-02-28T18:15:00.649Z,37.97
2019-02-28T18:18:15.325Z,38.83
2019-02-28T18:21:25.202Z,36.00
2019-02-28T18:24:27.502Z,37.73
2019-02-28T18:27:53.800Z,38.27
2019-02-28T18:30:55.166Z,36.13
2019-02-28T18:33:24.623Z,37.40
2019-02-28T18:35:53.780Z,33.10
2019-02-28T18:38:22.662Z,32.80
2019-02-28T18:40:51.850Z,33.10
2019-02-28T18:43:23.967Z,33.50
2019-02-28T18:45:53.623Z,31.53
2019-02-28T18:48:22.591Z,30.83
2019-02-28T18:50:51.698Z,31.37
2019-02-28T18:53:20.445Z,31.57
2019-02-28T18:55:49.202Z,29.90
2019-02-28T18:58:18.311Z,31.83
2019-02-28T19:00:47.656Z,29.30
2019-02-28T19:03:17.224Z,30.87
2019-02-28T19:05:46.570Z,28.90
2019-02-28T19:08:15.343Z,28.27
2019-02-28T19:10:44.282Z,28.57
2019-02-28T19:13:13.034Z,29.03
2019-02-28T19:15:41.859Z,28.80
2019-02-28T19:18:10.740Z,28.07
2019-02-28T19:20:39.747Z,29.27
2019-02-28T19:23:08.788Z,28.40
2019-02-28T19:25:37.568Z,27.40
2019-02-28T19:28:06.683Z,27.93
2019-02-28T19:30:35.905Z,24.97
2019-02-28T19:33:05.647Z,26.07
2019-02-28T19:35:34.814Z,25.77
2019-02-28T19:38:03.742Z,24.87
2019-02-28T19:40:32.998Z,25.47
2019-02-28T19:43:02.058Z,24.10
2019-02-28T19:45:31.090Z,24.30
2019-02-28T19:48:00.106Z,24.00
2019-02-28T19:50:28.886Z,23.10
2019-02-28T19:52:59.040Z,21.57
2019-02-28T19:55:28.054Z,23.20
2019-02-28T19:57:57.187Z,24.00
2019-02-28T20:00:26.571Z,20.90
2019-02-28T20:03:14.819Z,20.63
2019-02-28T20:05:43.610Z,17.97
2019-02-28T20:08:12.772Z,18.23
2019-02-28T20:10:41.896Z,17.90
2019-02-28T20:13:10.919Z,19.07
2019-02-28T20:15:41.303Z,18.53
2019-02-28T20:18:10.606Z,18.83
2019-02-28T20:20:40.029Z,17.20
2019-02-28T20:23:09.706Z,17.60
2019-02-28T20:25:38.733Z,16.80
2019-02-28T20:28:07.879Z,17.20
2019-02-28T20:30:37.151Z,17.60
2019-02-28T20:33:06.595Z,16.70
2019-02-28T20:35:35.660Z,17.23
2019-02-28T20:38:05.071Z,16.13
2019-02-28T20:40:34.031Z,15.90
2019-02-28T20:43:02.793Z,15.70
2019-02-28T20:45:31.915Z,16.80
2019-02-28T20:48:00.934Z,16.40
2019-02-28T20:50:32.996Z,16.07
2019-02-28T20:53:02.079Z,16.23
2019-02-28T20:55:31.112Z,16.60
2019-02-28T20:58:00.012Z,16.20
2019-02-28T21:00:28.831Z,16.03
2019-02-28T21:02:57.906Z,15.10
2019-02-28T21:05:27.063Z,15.93
2019-02-28T21:07:56.668Z,15.73
2019-02-28T21:10:26.170Z,16.90
2019-02-28T21:12:55.174Z,17.20
2019-02-28T21:15:24.893Z,15.17
2019-02-28T21:17:54.286Z,16.17
2019-02-28T21:20:23.306Z,14.87
2019-02-28T21:22:52.557Z,15.40
2019-02-28T21:25:21.723Z,13.27
2019-02-28T21:27:50.897Z,13.20
2019-02-28T21:30:20.938Z,12.93
2019-02-28T21:32:50.614Z,13.17
2019-02-28T21:35:19.955Z,13.17
2019-02-28T21:37:49.040Z,12.33
2019-02-28T21:40:18.709Z,11.90
2019-02-28T21:42:48.087Z,13.60
2019-02-28T21:45:18.219Z,11.67
2019-02-28T21:47:47.094Z,12.03
2019-02-28T21:50:16.891Z,12.03
2019-02-28T21:52:47.879Z,12.23
2019-02-28T21:55:17.000Z,12.07
2019-02-28T21:57:46.223Z,11.73
2019-02-28T22:00:20.130Z,12.30
2019-02-28T22:02:49.376Z,12.40
2019-02-28T22:05:18.682Z,12.53
2019-02-28T22:07:47.618Z,11.30
2019-02-28T22:10:17.200Z,12.07
2019-02-28T22:12:46.446Z,11.63
2019-02-28T22:15:16.821Z,11.20
2019-02-28T22:17:45.711Z,12.03
2019-02-28T22:20:14.687Z,12.30
2019-02-28T22:22:43.846Z,12.37
2019-02-28T22:25:13.471Z,12.53
2019-02-28T22:27:42.575Z,12.03
2019-02-28T22:30:32.723Z,12.70
2019-02-28T22:33:04.034Z,12.03
2019-02-28T22:35:36.835Z,13.27
2019-02-28T22:38:05.646Z,14.10
2019-02-28T22:40:34.658Z,13.27
2019-02-28T22:43:03.508Z,12.47
2019-02-28T22:45:32.255Z,13.47
2019-02-28T22:48:01.287Z,12.77
2019-02-28T22:50:30.025Z,13.50
2019-02-28T22:52:59.327Z,13.40
2019-02-28T22:55:28.412Z,14.67
2019-02-28T22:57:57.227Z,13.60
2019-02-28T23:00:46.809Z,14.63
2019-02-28T23:03:15.808Z,15.00
2019-02-28T23:05:45.079Z,15.50
2019-02-28T23:08:13.838Z,16.87
2019-02-28T23:10:43.168Z,16.73
2019-02-28T23:13:11.960Z,17.93
2019-02-28T23:15:40.963Z,17.27
2019-02-28T23:18:09.707Z,18.70
2019-02-28T23:20:38.474Z,17.03
2019-02-28T23:23:07.716Z,16.90
2019-02-28T23:25:36.970Z,18.80
2019-02-28T23:28:18.034Z,18.90
2019-02-28T23:31:06.367Z,19.20
2019-02-28T23:33:35.385Z,17.87
2019-02-28T23:36:04.507Z,20.40
2019-02-28T23:38:33.343Z,19.97
2019-02-28T23:41:03.622Z,20.83
2019-02-28T23:43:32.691Z,19.83
2019-02-28T23:46:01.431Z,18.70
2019-02-28T23:48:30.201Z,18.97
2019-02-28T23:50:58.942Z,19.67
2019-02-28T23:53:27.682Z,20.23
2019-02-28T23:55:56.606Z,18.93
2019-02-28T23:58:25.850Z,19.23
